• Join FlightAware (Why Join?)
  • Login
  • US Flag 
Gobble Gobble! 
07:56PM EST


 

Airport Tracker/Info


-or-


 

Live Flight TrackerFlight Track Log ✈ SWA183 ✈ 08-May-2014 ✈ KBWI - KSEA

Flight Track Log - Related Links

Times and Time Zones

All times are in EDT time to prevent confusion due to time zone crossing. See the SWA183 flight status page for this flight to view local times or setup timezone preferences in your user account.

Time Position Orientation Groundspeed Altitude Reporting Facility
EDT Latitude Longitude Course Direction KTS MPH feet Rate Location/Type
11:14AM 39.1833 -76.7333 270° West 181 208 2,200  Level Potomac TRACON
11:15AM 39.1833 -76.7833 270° West 217 250 4,600 3,000 Climbing Potomac TRACON
11:16AM 39.1833 -76.8667 270° West 222 255 7,900 2,700 Climbing Potomac TRACON
11:17AM 39.2000 -76.9500 284° West 256 295 10,100 1,980 Climbing Potomac TRACON
11:18AM 39.2333 -77.0500 293° West 297 342 11,900 2,220 Climbing Potomac TRACON
11:19AM 39.2667 -77.1500 293° West 335 386 14,600 2,160 Climbing Potomac TRACON
11:21AM 39.3608 -77.3658 299° West 340 391 18,500 1,920 Climbing Washington Center
11:22AM 39.4111 -77.4853 299° West 364 419 20,500 1,860 Climbing Washington Center
11:23AM 39.4592 -77.6075 297° West 376 433 22,300 1,800 Climbing Washington Center
11:24AM 39.5028 -77.7431 293° West 389 448 24,100 1,620 Climbing Washington Center
11:25AM 39.5419 -77.8817 290° West 407 468 25,600 1,500 Climbing Washington Center
11:25AM 39.5767 -77.9936 292° West 418 481 26,800 1,320 Climbing Cleveland Center
11:26AM 39.6203 -78.1397 291° West 430 495 28,000 540 Climbing Cleveland Center
11:27AM 39.6639 -78.2883 291° West 436 502 28,000 840 Level Cleveland Center
11:28AM 39.7067 -78.4342 291° West 436 502 29,800 1,500 Climbing Cleveland Center
11:30AM 39.7475 -78.5742 291° West 421 484 31,100 1,320 Climbing Cleveland Center
11:31AM 39.7919 -78.7269 291° West 420 483 32,600 1,380 Climbing Cleveland Center
11:32AM 39.8333 -78.8661 291° West 417 480 34,000 1,140 Climbing Cleveland Center
11:33AM 39.8747 -79.0136 290° West 415 478 35,000 960 Climbing Cleveland Center
11:34AM 39.9156 -79.1528 291° West 414 476 36,000 480 Climbing Cleveland Center
11:35AM 39.9561 -79.2928 291° West 414 476 36,000  Level Cleveland Center
11:36AM 40.0211 -79.4497 298° West 413 475 36,000  Level Cleveland Center
11:37AM 40.0844 -79.5750 303° West 414 476 36,000  Level Cleveland Center
11:38AM 40.1483 -79.6986 304° West 413 475 36,000  Level Cleveland Center
11:39AM 40.2117 -79.8225 304° West 412 474 36,000  Level Cleveland Center
11:40AM 40.2744 -79.9464 304° West 412 474 36,000  Level Cleveland Center
11:41AM 40.3464 -80.0886 304° West 413 475 36,000  Level Cleveland Center
11:42AM 40.4094 -80.2125 304° West 413 475 36,000  Level Cleveland Center
11:43AM 40.4719 -80.3367 304° West 410 472 36,000  Level Cleveland Center
11:44AM 40.5314 -80.4556 303° West 408 470 36,000  Level Cleveland Center
11:45AM 40.6006 -80.5942 303° West 406 467 36,000  Level Cleveland Center
11:46AM 40.6653 -80.7239 303° West 400 460 36,000  Level Cleveland Center
11:47AM 40.7250 -80.8453 303° West 398 458 36,000  Level Cleveland Center
11:48AM 40.7850 -80.9675 303° West 398 458 36,000  Level Cleveland Center
11:49AM 40.8425 -81.0883 302° West 398 458 36,000  Level Cleveland Center
11:50AM 40.9042 -81.2131 303° West 399 459 36,000  Level Cleveland Center
11:51AM 40.9753 -81.3600 303° West 400 460 36,000  Level Cleveland Center
11:52AM 41.0361 -81.4867 303° West 402 463 36,000  Level Cleveland Center
11:53AM 41.0972 -81.6153 302° West 403 464 36,000  Level Cleveland Center
11:54AM 41.1581 -81.7428 302° West 405 466 36,000  Level Cleveland Center
11:55AM 41.2183 -81.8714 302° West 407 468 36,000  Level Cleveland Center
11:56AM 41.2800 -81.9978 303° West 408 470 36,000  Level Cleveland Center
11:57AM 41.3456 -82.1358 302° West 408 470 36,000  Level Cleveland Center
11:58AM 41.4106 -82.2597 305° West 407 468 36,000  Level Cleveland Center
11:59AM 41.4772 -82.3819 306° West 407 468 36,000  Level Cleveland Center
12:00PM 41.5431 -82.5053 306° West 406 467 36,000  Level Cleveland Center
12:01PM 41.6089 -82.6267 306° West 403 464 36,000  Level Cleveland Center
12:02PM 41.6822 -82.7653 305° West 402 463 36,000  Level Cleveland Center
12:04PM 41.7461 -82.8850 306° West 399 459 36,000  Level Cleveland Center
12:05PM 41.8097 -83.0044 306° West 397 457 36,000  Level Cleveland Center
12:06PM 41.8728 -83.1231 306° West 394 453 36,000  Level Cleveland Center
12:07PM 41.9400 -83.2508 305° West 394 453 36,000  Level Cleveland Center
12:08PM 42.0022 -83.3700 305° West 390 449 36,000  Level Cleveland Center
12:09PM 42.0619 -83.4919 303° West 390 449 36,000  Level Cleveland Center
12:10PM 42.1167 -83.6428 296° West 390 449 36,000  Level Cleveland Center
12:11PM 42.1667 -83.7756 297° West 390 449 36,000  Level Cleveland Center
12:12PM 42.2156 -83.9075 297° West 390 449 36,000  Level Cleveland Center
12:13PM 42.2633 -84.0389 296° West 390 449 36,000  Level Cleveland Center
12:14PM 42.3119 -84.1692 297° West 390 449 36,000  Level Cleveland Center
12:15PM 42.3597 -84.3008 296° West 390 449 36,000 -60 Level Cleveland Center
12:16PM 42.4081 -84.4322 297° West 390 449 35,900  Descending Cleveland Center
12:17PM 42.4639 -84.5881 296° West 388 447 36,000  Climbing Cleveland Center
12:18PM 42.5069 -84.7047 297° West 379 436 36,000  Level Cleveland Center
12:19PM 42.5506 -84.8300 295° West 372 428 36,000  Level Cleveland Center
12:20PM 42.5956 -84.9522 297° West 366 421 36,000  Level Cleveland Center
12:21PM 42.6486 -85.1031 296° West 366 421 36,000  Level Chicago Center
12:22PM 42.6914 -85.2272 295° West 366 421 36,000  Level Cleveland Center
12:23PM 42.7356 -85.3517 296° West 366 421 36,000  Level Cleveland Center
12:24PM 42.7792 -85.4764 296° West 367 422 36,000  Level Chicago Center
12:25PM 42.8053 -85.6419 282° West 371 427 36,000  Level Chicago Center
12:26PM 42.8233 -85.7828 280° West 374 430 36,000  Level Chicago Center
12:27PM 42.8408 -85.9244 280° West 375 432 36,000  Level Chicago Center
12:28PM 42.8583 -86.0669 280° West 372 428 36,000  Level Chicago Center
12:29PM 42.8764 -86.2117 280° West 380 437 36,000  Level Chicago Center
12:30PM 42.8953 -86.3528 280° West 379 436 36,000  Level Chicago Center
12:31PM 42.9122 -86.4969 279° West 382 440 36,000  Level Chicago Center
12:33PM 42.9306 -86.6433 280° West 392 451 36,000  Level Chicago Center
12:34PM 42.9517 -86.8147 280° West 381 438 36,000  Level Chicago Center
12:35PM 42.9678 -86.9569 279° West 375 432 36,000  Level Chicago Center
12:36PM 43.0072 -87.0958 291° West 389 448 36,000  Level Chicago Center
12:37PM 43.0478 -87.2331 292° West 390 449 36,000  Level Chicago Center
12:38PM 43.0947 -87.3878 293° West 391 450 36,000  Level Chicago Center
12:39PM 43.1350 -87.5242 292° West 385 443 36,000  Level Chicago Center
12:40PM 43.1758 -87.6617 292° West 385 443 36,000  Level Chicago Center
12:41PM 43.2172 -87.7983 293° West 388 447 36,000  Level Chicago Center
12:42PM 43.2572 -87.9344 292° West 387 445 36,000  Level Chicago Center
12:43PM 43.3061 -88.1017 292° West 389 448 36,000  Level Chicago Center
12:44PM 43.3461 -88.2400 292° West 389 448 36,000  Level Chicago Center
12:45PM 43.3856 -88.3775 292° West 390 449 36,000  Level Chicago Center
12:46PM 43.4333 -88.5319 293° West 418 481 36,000  Level Chicago Center
12:47PM 43.4708 -88.6764 290° West 398 458 36,000  Level Chicago Center
12:48PM 43.5103 -88.8142 292° West 389 448 36,000  Level Chicago Center
12:49PM 43.5497 -88.9569 291° West 395 455 36,000  Level Chicago Center
12:50PM 43.5883 -89.0947 291° West 392 451 36,000  Level Chicago Center
12:51PM 43.6267 -89.2336 291° West 390 449 36,000  Level Chicago Center
12:52PM 43.6739 -89.3978 292° West 387 445 36,000  Level Chicago Center
12:53PM 43.7111 -89.5364 290° West 386 444 36,000  Level Chicago Center
12:54PM 43.7489 -89.6733 291° West 384 442 36,000  Level Chicago Center
12:55PM 43.7864 -89.8103 291° West 384 442 36,000  Level Chicago Center
12:56PM 43.8236 -89.9483 291° West 384 442 36,000  Level Chicago Center
12:57PM 43.8606 -90.0861 290° West 383 441 36,000  Level Minneapolis Center
12:58PM 43.8986 -90.2247 291° West 384 442 36,000  Level Minneapolis Center
12:59PM 43.9392 -90.3619 292° West 384 442 36,000  Level Minneapolis Center
01:00PM 44.0067 -90.5203 301° West 393 452 36,000  Level Minneapolis Center
01:01PM 44.0572 -90.6411 300° West 393 452 36,000  Level Minneapolis Center
01:02PM 44.1122 -90.7719 300° West 394 453 36,000  Level Minneapolis Center
01:03PM 44.1675 -90.9039 300° West 395 455 36,000  Level Minneapolis Center
01:04PM 44.2331 -91.0619 300° West 395 455 36,000  Level Minneapolis Center
01:06PM 44.2886 -91.1964 300° West 396 456 36,000  Level Minneapolis Center
01:07PM 44.3500 -91.3289 303° West 403 464 36,000  Level Minneapolis Center
01:08PM 44.4403 -91.4425 318° Northwest 424 488 36,000  Level Minneapolis Center
01:09PM 44.5283 -91.5547 318° Northwest 429 494 36,000  Level Minneapolis Center
01:10PM 44.6306 -91.6903 317° Northwest 427 491 36,000  Level Minneapolis Center
01:11PM 44.7186 -91.8017 318° Northwest 427 491 36,000  Level Minneapolis Center
01:12PM 44.8058 -91.9164 317° Northwest 427 491 36,000  Level Minneapolis Center
01:13PM 44.9064 -92.0181 324° Northwest 445 512 36,000  Level Minneapolis Center
01:14PM 45.0072 -92.1164 325° Northwest 446 513 36,000  Level Minneapolis Center
01:15PM 45.1075 -92.2172 325° Northwest 446 513 36,000  Level Minneapolis Center
01:16PM 45.2297 -92.3364 326° Northwest 446 513 36,000  Level Minneapolis Center
01:17PM 45.3331 -92.4333 327° Northwest 446 513 36,000  Level Minneapolis Center
01:18PM 45.4256 -92.5425 320° Northwest 437 503 36,000 120 Level Minneapolis Center
01:19PM 45.5175 -92.6494 321° Northwest 435 501 36,300 480 Climbing Minneapolis Center
01:20PM 45.6008 -92.7636 316° Northwest 421 484 37,000 660 Climbing Minneapolis Center
01:21PM 45.6839 -92.9092 309° West 398 458 37,700 480 Climbing Minneapolis Center
01:22PM 45.7464 -93.0328 306° West 386 444 38,000 120 Climbing Minneapolis Center
01:23PM 45.8086 -93.1589 305° West 389 448 38,000  Level Minneapolis Center
01:24PM 45.8664 -93.2897 302° West 394 453 38,000  Level Minneapolis Center
01:25PM 45.9394 -93.4144 310° West 406 467 38,000  Level Minneapolis Center
01:26PM 46.0144 -93.5400 311° West 411 473 38,000  Level Minneapolis Center
01:27PM 46.1047 -93.6969 310° West 420 483 38,000  Level Minneapolis Center
01:28PM 46.1636 -93.8331 302° West 409 471 38,000  Level Minneapolis Center
01:29PM 46.1878 -93.9831 283° West 390 449 38,000  Level Minneapolis Center
01:30PM 46.2128 -94.1461 283° West 388 447 38,000  Level Minneapolis Center
01:31PM 46.2358 -94.2947 283° West 386 444 38,000  Level Minneapolis Center
01:32PM 46.2592 -94.4467 283° West 386 444 38,000  Level Minneapolis Center
01:33PM 46.2817 -94.5975 282° West 386 444 38,000  Level Minneapolis Center
01:34PM 46.3044 -94.7453 283° West 381 438 38,000  Level Minneapolis Center
01:35PM 46.3297 -94.9217 282° West 377 434 38,000  Level Minneapolis Center
01:37PM 46.3525 -95.0708 283° West 377 434 38,000  Level Minneapolis Center
01:38PM 46.3744 -95.2200 282° West 377 434 38,000 -60 Level Minneapolis Center
01:39PM 46.3958 -95.3697 282° West 378 435 37,900  Descending Minneapolis Center
01:40PM 46.4158 -95.5128 282° West 379 436 38,000  Climbing Minneapolis Center
01:41PM 46.4419 -95.6919 282° West 380 437 38,000  Level Minneapolis Center
01:42PM 46.4628 -95.8419 281° West 388 447 38,000  Level Minneapolis Center
01:43PM 46.4839 -95.9944 281° West 388 447 38,000  Level Minneapolis Center
01:44PM 46.5053 -96.1458 282° West 387 445 38,000  Level Minneapolis Center
01:45PM 46.5264 -96.2983 281° West 387 445 38,000  Level Minneapolis Center
01:46PM 46.5503 -96.4839 281° West 388 447 38,000  Level Minneapolis Center
01:47PM 46.5717 -96.6386 281° West 389 448 38,000  Level Minneapolis Center
01:48PM 46.5936 -96.7950 282° West 392 451 38,000  Level Minneapolis Center
01:49PM 46.6136 -96.9517 281° West 394 453 38,000  Level Minneapolis Center
01:50PM 46.6325 -97.1092 280° West 394 453 38,000  Level Minneapolis Center
01:51PM 46.6522 -97.2661 280° West 394 453 38,000  Level Minneapolis Center
01:52PM 46.6728 -97.4258 281° West 395 455 38,000  Level Minneapolis Center
01:53PM 46.6958 -97.6175 280° West 396 456 38,000  Level Minneapolis Center
01:54PM 46.7161 -97.7778 281° West 398 458 38,000  Level Minneapolis Center
01:55PM 46.7356 -97.9414 280° West 404 465 38,000  Level Minneapolis Center
01:56PM 46.7547 -98.1067 280° West 405 466 38,000  Level Minneapolis Center
01:57PM 46.7750 -98.2669 281° West 405 466 38,000  Level Minneapolis Center
01:58PM 46.7944 -98.4319 280° West 405 466 38,000  Level Minneapolis Center
01:59PM 46.8133 -98.5978 280° West 409 471 38,000  Level Minneapolis Center
02:00PM 46.8303 -98.7639 279° West 409 471 38,000  Level Minneapolis Center
02:01PM 46.8528 -98.9628 279° West 410 472 38,000  Level Minneapolis Center
02:02PM 46.8708 -99.1308 279° West 414 476 38,000  Level Minneapolis Center
02:03PM 46.8897 -99.2989 279° West 416 479 38,000  Level Minneapolis Center
02:04PM 46.9069 -99.4689 278° West 418 481 38,000  Level Minneapolis Center
02:05PM 46.9250 -99.6386 279° West 419 482 38,000  Level Minneapolis Center
02:06PM 46.9433 -99.8106 279° West 423 487 38,000  Level Minneapolis Center
02:07PM 46.9606 -99.9814 278° West 425 489 38,000  Level Minneapolis Center
02:08PM 46.9817 -100.1864 279° West 425 489 38,000  Level Minneapolis Center
02:10PM 46.9983 -100.3603 278° West 428 493 38,000  Level Minneapolis Center
02:11PM 47.0150 -100.5347 278° West 430 495 38,000  Level Minneapolis Center
02:12PM 47.0311 -100.7019 278° West 433 498 38,000  Level Minneapolis Center
02:13PM 47.0494 -100.8894 278° West 439 505 38,000  Level Minneapolis Center
02:14PM 47.0697 -101.0675 280° West 446 513 38,000  Level Minneapolis Center
02:15PM 47.0906 -101.2797 278° West 445 512 38,000  Level Minneapolis Center
02:16PM 47.0989 -101.4617 274° West 446 513 38,000  Level Minneapolis Center
02:17PM 47.1144 -101.6422 277° West 446 513 38,000  Level Minneapolis Center
02:18PM 47.1294 -101.8189 277° West 445 512 38,000  Level Minneapolis Center
02:19PM 47.1442 -101.9961 277° West 442 509 38,000  Level Minneapolis Center
02:20PM 47.1606 -102.1706 278° West 438 504 38,000  Level Minneapolis Center
02:21PM 47.1739 -102.3469 276° West 437 503 38,000  Level Minneapolis Center
02:22PM 47.1925 -102.5575 277° West 435 501 38,000  Level Minneapolis Center
02:23PM 47.2056 -102.7339 276° West 435 501 38,000  Level Minneapolis Center
02:24PM 47.2194 -102.9111 277° West 435 501 38,000  Level Minneapolis Center
02:25PM 47.2339 -103.0869 277° West 435 501 38,000  Level Minneapolis Center
02:26PM 47.2442 -103.2669 275° West 437 503 38,000  Level Salt Lake Center
02:27PM 47.2561 -103.4469 276° West 438 504 38,000  Level Salt Lake Center
02:28PM 47.2689 -103.6250 276° West 438 504 38,000  Level Salt Lake Center
02:29PM 47.2833 -103.8422 276° West 438 504 38,000  Level Salt Lake Center
02:30PM 47.2947 -104.0219 275° West 438 504 38,000  Level Salt Lake Center
02:31PM 47.3058 -104.2000 275° West 438 504 38,000  Level Salt Lake Center
02:32PM 47.3164 -104.3797 275° West 438 504 38,000  Level Salt Lake Center
02:33PM 47.3264 -104.5583 275° West 438 504 38,000  Level Salt Lake Center
02:34PM 47.3389 -104.7389 276° West 438 504 38,000  Level Salt Lake Center
02:35PM 47.3492 -104.9178 275° West 438 504 38,000  Level Salt Lake Center
02:36PM 47.3603 -105.0972 275° West 438 504 38,000  Level Salt Lake Center
02:37PM 47.3706 -105.3086 274° West 438 504 38,000  Level Salt Lake Center
02:38PM 47.3808 -105.4853 275° West 435 501 38,000  Level Salt Lake Center
02:39PM 47.3911 -105.6636 275° West 435 501 38,000  Level Salt Lake Center
02:40PM 47.4006 -105.8400 275° West 435 501 38,000  Level Salt Lake Center
02:41PM 47.4078 -106.0181 273° West 434 499 38,000  Level Salt Lake Center
02:42PM 47.4161 -106.1950 274° West 434 499 38,000  Level Salt Lake Center
02:44PM 47.4253 -106.3919 274° West 434 499 38,000  Level Salt Lake Center
02:45PM 47.4328 -106.5669 274° West 433 498 38,000  Level Salt Lake Center
02:46PM 47.4392 -106.7444 273° West 433 498 38,000  Level Salt Lake Center
02:47PM 47.4472 -106.9206 274° West 433 498 38,000  Level Salt Lake Center
02:48PM 47.4542 -107.1319 273° West 433 498 38,000  Level Salt Lake Center
02:49PM 47.4600 -107.2892 273° West 432 497 38,000  Level Salt Lake Center
02:50PM 47.4675 -107.4919 273° West 432 497 38,000  Level Salt Lake Center
02:51PM 47.4736 -107.6689 273° West 432 497 38,000  Level Salt Lake Center
02:52PM 47.4789 -107.8450 273° West 432 497 38,000  Level Salt Lake Center
02:53PM 47.4839 -108.0206 272° West 431 496 38,000  Level Salt Lake Center
02:54PM 47.4900 -108.1972 273° West 431 496 38,000  Level Salt Lake Center
02:55PM 47.4936 -108.3736 272° West 431 496 38,000  Level Salt Lake Center
02:56PM 47.4989 -108.5508 273° West 431 496 38,000  Level Salt Lake Center
02:57PM 47.5039 -108.7669 272° West 434 499 38,000  Level Salt Lake Center
02:58PM 47.5081 -108.9458 272° West 436 502 38,000  Level Salt Lake Center
02:59PM 47.5114 -109.1236 272° West 436 502 38,000  Level Salt Lake Center
03:00PM 47.5144 -109.3000 272° West 436 502 38,000  Level Salt Lake Center
03:01PM 47.5183 -109.4781 272° West 435 501 38,000  Level Salt Lake Center
03:02PM 47.5203 -109.6572 271° West 435 501 38,000  Level Salt Lake Center
03:03PM 47.5231 -109.8350 271° West 435 501 38,000  Level Salt Lake Center
03:04PM 47.5242 -110.0489 271° West 435 501 38,000  Level Salt Lake Center
03:05PM 47.5267 -110.2283 271° West 435 501 38,000  Level Salt Lake Center
03:06PM 47.5289 -110.4053 271° West 435 501 38,000  Level Salt Lake Center
03:07PM 47.5328 -110.5822 272° West 434 499 38,000  Level Salt Lake Center
03:08PM 47.5325 -110.7619 270° West 434 499 38,000  Level Salt Lake Center
03:09PM 47.5336 -110.9372 271° West 431 496 38,000  Level Salt Lake Center
03:10PM 47.5344 -111.1122 270° West 426 490 38,000  Level Salt Lake Center
03:11PM 47.5322 -111.3033 269° West 427 491 38,000  Level Salt Lake Center
03:12PM 47.5339 -111.4719 271° West 426 490 38,000  Level Salt Lake Center
03:13PM 47.5339 -111.6478 270° West 425 489 38,000  Level Salt Lake Center
03:14PM 47.5328 -111.8556 270° West 424 488 38,000  Level Salt Lake Center
03:15PM 47.5322 -112.0278 270° West 423 487 38,000  Level Salt Lake Center
03:16PM 47.5303 -112.2006 269° West 423 487 38,000  Level Salt Lake Center
03:17PM 47.5294 -112.3728 270° West 422 486 38,000  Level Salt Lake Center
03:19PM 47.5272 -112.5436 269° West 418 481 38,000  Level Salt Lake Center
03:20PM 47.5253 -112.7142 269° West 418 481 38,000  Level Salt Lake Center
03:21PM 47.5206 -112.8799 269° West  Level FlightAware Approximate
03:21PM 47.5236 -112.8844 269° West 417 480 38,000  Level Salt Lake Center
03:22PM 47.5239 -113.0956 270° West 419 482 38,000  Level Salt Lake Center
03:23PM 47.5200 -113.2672 268° West 420 483 38,000  Level Salt Lake Center
03:24PM 47.5161 -113.4394 268° West 419 482 38,000  Level Salt Lake Center
03:25PM 47.5128 -113.6106 268° West 416 479 38,000  Level Salt Lake Center
03:26PM 47.5094 -113.7844 268° West 418 481 38,000  Level Salt Lake Center
03:27PM 47.5058 -113.9575 268° West 419 482 38,000  Level Salt Lake Center
03:28PM 47.5017 -114.1303 268° West 420 483 38,000  Level Salt Lake Center
03:43PM 47.5211 -116.7400 278° West 416 479 38,000  Level Seattle Center
03:44PM 47.5122 -116.7679 274° West  Level FlightAware Approximate
03:45PM 47.5201 -116.9356 274° West  Level FlightAware Approximate
03:45PM 47.5392 -117.1111 274° West 418 481 38,000  Level Seattle Center
03:46PM 47.5279 -117.1034 274° West  Level FlightAware Approximate
03:46PM 47.5478 -117.2700 275° West 418 481 38,000  Level Seattle Center
03:47PM 47.5354 -117.2712 274° West  Level FlightAware Approximate
03:47PM 47.5561 -117.4433 274° West 418 481 38,000  Level Seattle Center
03:48PM 47.5426 -117.4390 274° West  Level FlightAware Approximate
03:48PM 47.5639 -117.6147 274° West 419 482 38,000  Level Seattle Center
03:49PM 47.5496 -117.6069 274° West  Level FlightAware Approximate
03:49PM 47.5797 -117.7828 278° West 417 480 38,000  Level Seattle Center
03:50PM 47.5675 -117.7730 279° West  Level FlightAware Approximate
03:50PM 47.5958 -117.9511 278° West 416 479 38,000  Level Seattle Center
03:51PM 47.5855 -117.9392 278° West  Level FlightAware Approximate
03:51PM 47.6108 -118.1178 278° West 414 476 38,000  Level Seattle Center
03:52PM 47.6016 -118.1059 278° West  Level FlightAware Approximate
03:52PM 47.6297 -118.3175 278° West 412 474 38,000  Level Seattle Center
03:53PM 47.6174 -118.2727 278° West  Level FlightAware Approximate
03:53PM 47.6433 -118.4844 277° West 411 473 38,000  Level Seattle Center
03:54PM 47.6589 -118.6517 278° West 411 473 38,000  Level Seattle Center
03:55PM 47.6739 -118.8178 278° West 410 472 38,000  Level Seattle Center
03:56PM 47.6881 -118.9847 277° West 409 471 38,000  Level Seattle Center
03:57PM 47.7022 -119.1514 277° West 412 474 38,000  Level Seattle Center
03:58PM 47.7153 -119.3203 277° West 412 474 38,000  Level Seattle Center
03:59PM 47.7286 -119.4889 277° West 412 474 38,000  Level Seattle Center
04:00PM 47.7428 -119.6539 277° West 411 473 38,000 -420 Level Seattle Center
04:01PM 47.7556 -119.8206 277° West 409 471 37,200 -1,140 Descending Seattle Center
04:02PM 47.7689 -119.9864 277° West 409 471 35,800 -2,160 Descending Seattle Center
04:03PM 47.7817 -120.1492 277° West 403 464 32,900 -2,880 Descending Seattle Center
04:04PM 47.7958 -120.3450 276° West 402 463 30,000 -2,460 Descending Seattle Center
04:05PM 47.8097 -120.5014 278° West 389 448 27,900 -2,100 Descending Seattle Center
04:06PM 47.8194 -120.6539 275° West 379 436 25,800 -2,100 Descending Seattle Center
04:07PM 47.8289 -120.8014 276° West 366 421 23,700 -2,100 Descending Seattle Center
04:08PM 47.8411 -120.9550 277° West 358 412 21,600 -2,040 Descending Seattle Center
04:10PM 47.8508 -121.0986 276° West 354 407 19,600 -2,100 Descending Seattle Center
04:11PM 47.8558 -121.2422 273° West 351 404 17,400 -2,160 Descending Seattle Center
04:11PM 47.8631 -121.3239 278° West 345 397 16,300 -1,920 Descending Seattle Center
04:12PM 47.8653 -121.3828 273° West 341 392 15,500 -2,100 Descending Seattle Center
04:12PM 47.8711 -121.4750 275° West 338 389 14,200 -1,920 Descending Seattle Center
04:13PM 47.8750 -121.5208 277° West 337 388 13,600 -1,980 Descending Seattle Center
04:13PM 47.8783 -121.5803 275° West 338 389 12,600 -1,440 Descending Seattle Center
04:14PM 47.8769 -121.7303 269° West 308 354 11,500 -960 Descending Seattle Center
04:15PM 47.8617 -121.7725 242° Southwest 282 325 11,000 -1,500 Descending Seattle Center
04:15PM 47.8481 -121.8261 249° West 268 308 10,200 -1,680 Descending Seattle Center
04:16PM 47.8319 -121.8772 245° Southwest 272 313 9,300 -1,800 Descending Seattle Center
04:16PM 47.8186 -121.9289 249° West 262 302 8,400 -1,620 Descending Seattle Center
04:17PM 47.8003 -121.9939 247° West 259 298 7,700 -1,200 Descending Seattle Center
04:17PM 47.7917 -122.0331 252° West 252 290 7,100 -1,500 Descending Seattle Center
04:18PM 47.7753 -122.0903 247° West 249 287 6,200 -1,020 Descending Seattle Center
04:18PM 47.7617 -122.1425 249° West 249 287 6,000 -240 Descending Seattle Center
04:19PM 47.7592 -122.1839 265° West 232 267 6,000  Level Seattle Center
04:19PM 47.7628 -122.2342 276° West 208 239 6,000 -420 Level Seattle Center
04:20PM 47.7603 -122.2697 264° West 213 245 5,600 -1,140 Descending Seattle Center
04:20PM 47.7417 -122.2919 219° Southwest 188 216 5,000 -1,380 Descending Seattle Center
04:21PM 47.7125 -122.3078 200° South 181 208 4,200 -1,140 Descending Seattle Center
04:21PM 47.6967 -122.3072 179° South 175 201 4,000 -240 Descending Seattle Center
04:22PM 47.6628 -122.3069 180° South 183 211 4,000 -120 Level Seattle Center
04:22PM 47.6453 -122.3058 178° South 173 199 3,900 -600 Descending Seattle Center
04:23PM 47.6161 -122.3072 182° South 173 199 3,400 -780 Descending Seattle Center
04:23PM 47.6039 -122.3092 186° South 161 185 3,200 -840 Descending Seattle Center
04:24PM 47.5736 -122.3075 178° South 164 189 2,600 -1,140 Descending Seattle Center
04:24PM 47.5589 -122.3078 181° South 156 180 2,100 -840 Descending Seattle Center
04:25PM 47.5308 -122.3075 180° South 145 167 1,800 -540 Descending Seattle Center
04:25PM 47.5194 -122.3097 188° South 135 155 1,600 -840 Descending Seattle Center
04:26PM 47.4928 -122.3072 176° South 136 157 1,000 -840 Descending Seattle Center
04:26PM 47.4814 -122.3081 183° South 135 155 800 -600 Descending Seattle Center
04:27PM 47.4572 -122.3094 182° South 137 158 400 -600 Descending Seattle Center
04:29PM 47.4499 -122.3118 180° South  Level Estimated